Zografos, Greece
Current Conditions -  °F | °C
As of 12:20 PM on Sunday 26 Oct 2014 (Local Time) from LGTS Reporting Station
Overcast Overcast  
Wind Chill: 52°   Ceiling: 4000
Heat Index: 52°   Visibility: 6mi
Dew Point: 39°   Wind: 8mph
Humidity: 62%   Direction: 330°NNW
Pressure: 30.18"   Gusts: NA
Location:  40.28°N, 23.25°E
Report Text: LGTS 260920Z 33007KT 9999 FEW015 BKN040 OVC060 11/04 Q1022 NOSIG
Loading
Personal Weather Stations






























Interactive Weather Map
Tropical Storm Tracking
New forecast layout! Learn more

10-Day Weather Forecast

Advertisements
Track Severe Weather on mobile